sensor_id;sensor_type;location;lat;lon;timestamp;pressure;altitude;pressure_sealevel;temperature;humidity
50166;BME280;36071;48.140;11.516;2024-02-04T00:01:03;96480.0;;;7.8;74.9
50166;BME280;36071;48.140;11.516;2024-02-04T00:06:03;96490.0;;;7.7;75.9
50166;BME280;36071;48.140;11.516;2024-02-04T00:11:03;96480.0;;;7.7;76.1
50166;BME280;36071;48.140;11.516;2024-02-04T00:16:04;96480.0;;;7.6;76.4
50166;BME280;36071;48.140;11.516;2024-02-04T00:21:03;96480.0;;;7.5;76.9
50166;BME280;36071;48.140;11.516;2024-02-04T00:31:03;96480.0;;;7.5;77.4
50166;BME280;36071;48.140;11.516;2024-02-04T00:36:08;96470.0;;;7.5;77.5
50166;BME280;36071;48.140;11.516;2024-02-04T00:41:03;96450.0;;;7.4;77.4
50166;BME280;36071;48.140;11.516;2024-02-04T00:46:03;96450.0;;;7.4;78.1
50166;BME280;36071;48.140;11.516;2024-02-04T00:51:03;96450.0;;;7.4;78.0
50166;BME280;36071;48.140;11.516;2024-02-04T00:56:03;96440.0;;;7.4;77.7
50166;BME280;36071;48.140;11.516;2024-02-04T01:01:03;96450.0;;;7.4;77.9
50166;BME280;36071;48.140;11.516;2024-02-04T01:06:03;96440.0;;;7.4;78.2
50166;BME280;36071;48.140;11.516;2024-02-04T01:11:03;96430.0;;;7.3;78.9
50166;BME280;36071;48.140;11.516;2024-02-04T01:16:03;96410.0;;;7.2;79.1
50166;BME280;36071;48.140;11.516;2024-02-04T01:21:03;96410.0;;;7.2;79.6
50166;BME280;36071;48.140;11.516;2024-02-04T01:26:02;96410.0;;;7.1;79.8
50166;BME280;36071;48.140;11.516;2024-02-04T01:31:03;96400.0;;;6.9;80.3
50166;BME280;36071;48.140;11.516;2024-02-04T01:36:03;96400.0;;;6.9;80.7
50166;BME280;36071;48.140;11.516;2024-02-04T01:41:03;96400.0;;;6.9;80.5
50166;BME280;36071;48.140;11.516;2024-02-04T01:46:03;96400.0;;;6.9;81.0
50166;BME280;36071;48.140;11.516;2024-02-04T01:51:03;96410.0;;;6.8;80.2
50166;BME280;36071;48.140;11.516;2024-02-04T01:56:03;96430.0;;;6.8;80.4
50166;BME280;36071;48.140;11.516;2024-02-04T02:01:03;96430.0;;;6.8;80.5
50166;BME280;36071;48.140;11.516;2024-02-04T02:06:03;96430.0;;;6.9;80.3
50166;BME280;36071;48.140;11.516;2024-02-04T02:11:04;96420.0;;;6.9;79.8
50166;BME280;36071;48.140;11.516;2024-02-04T02:16:04;96420.0;;;6.8;79.8
50166;BME280;36071;48.140;11.516;2024-02-04T02:21:09;96410.0;;;6.8;80.3
50166;BME280;36071;48.140;11.516;2024-02-04T02:26:03;96400.0;;;6.7;80.3
50166;BME280;36071;48.140;11.516;2024-02-04T02:31:04;96410.0;;;6.8;79.9
50166;BME280;36071;48.140;11.516;2024-02-04T02:36:21;96400.0;;;6.8;80.1
50166;BME280;36071;48.140;11.516;2024-02-04T02:41:16;96400.0;;;6.8;79.5
50166;BME280;36071;48.140;11.516;2024-02-04T02:46:17;96390.0;;;6.8;79.2
50166;BME280;36071;48.140;11.516;2024-02-04T02:51:16;96390.0;;;6.8;79.3
50166;BME280;36071;48.140;11.516;2024-02-04T02:56:17;96390.0;;;6.8;78.8
50166;BME280;36071;48.140;11.516;2024-02-04T03:06:16;96410.0;;;6.9;79.1
50166;BME280;36071;48.140;11.516;2024-02-04T03:11:17;96410.0;;;6.9;79.0
50166;BME280;36071;48.140;11.516;2024-02-04T03:16:16;96420.0;;;6.8;79.5
50166;BME280;36071;48.140;11.516;2024-02-04T03:26:17;96410.0;;;6.9;79.3
50166;BME280;36071;48.140;11.516;2024-02-04T03:31:19;96430.0;;;6.9;78.7
50166;BME280;36071;48.140;11.516;2024-02-04T03:36:18;96420.0;;;6.9;78.9
50166;BME280;36071;48.140;11.516;2024-02-04T03:41:16;96430.0;;;6.9;78.8
50166;BME280;36071;48.140;11.516;2024-02-04T03:46:18;96410.0;;;6.9;79.3
50166;BME280;36071;48.140;11.516;2024-02-04T03:51:17;96400.0;;;6.8;79.6
50166;BME280;36071;48.140;11.516;2024-02-04T03:56:16;96410.0;;;6.8;79.8
50166;BME280;36071;48.140;11.516;2024-02-04T04:01:17;96370.0;;;6.5;80.1
50166;BME280;36071;48.140;11.516;2024-02-04T04:06:17;96410.0;;;6.8;79.8
50166;BME280;36071;48.140;11.516;2024-02-04T04:11:17;96410.0;;;6.9;79.8
50166;BME280;36071;48.140;11.516;2024-02-04T04:16:19;96400.0;;;6.8;80.2
50166;BME280;36071;48.140;11.516;2024-02-04T04:21:20;96400.0;;;6.9;80.5
50166;BME280;36071;48.140;11.516;2024-02-04T04:26:16;96400.0;;;6.9;80.6
50166;BME280;36071;48.140;11.516;2024-02-04T04:31:17;96400.0;;;6.9;81.3
50166;BME280;36071;48.140;11.516;2024-02-04T04:36:17;96390.0;;;6.9;82.2
50166;BME280;36071;48.140;11.516;2024-02-04T04:41:16;96400.0;;;6.9;82.2
50166;BME280;36071;48.140;11.516;2024-02-04T04:46:17;96410.0;;;6.9;82.1
50166;BME280;36071;48.140;11.516;2024-02-04T04:51:16;96400.0;;;6.9;81.8
50166;BME280;36071;48.140;11.516;2024-02-04T04:56:17;96410.0;;;6.9;80.8
50166;BME280;36071;48.140;11.516;2024-02-04T05:01:17;96420.0;;;6.8;81.9
50166;BME280;36071;48.140;11.516;2024-02-04T05:06:20;96410.0;;;6.9;80.7
50166;BME280;36071;48.140;11.516;2024-02-04T05:11:16;96410.0;;;6.9;80.6
50166;BME280;36071;48.140;11.516;2024-02-04T05:16:16;96390.0;;;6.8;80.9
50166;BME280;36071;48.140;11.516;2024-02-04T05:21:17;96390.0;;;6.9;80.5
50166;BME280;36071;48.140;11.516;2024-02-04T05:26:17;96380.0;;;6.9;81.3
50166;BME280;36071;48.140;11.516;2024-02-04T05:31:17;96390.0;;;6.9;81.4
50166;BME280;36071;48.140;11.516;2024-02-04T05:36:21;96400.0;;;6.9;82.6
50166;BME280;36071;48.140;11.516;2024-02-04T05:41:17;96410.0;;;7.0;83.5
50166;BME280;36071;48.140;11.516;2024-02-04T05:46:17;96380.0;;;7.0;85.3
50166;BME280;36071;48.140;11.516;2024-02-04T05:51:17;96380.0;;;7.0;85.7
50166;BME280;36071;48.140;11.516;2024-02-04T05:56:16;96400.0;;;7.0;86.7
50166;BME280;36071;48.140;11.516;2024-02-04T06:01:17;96390.0;;;6.9;87.7
50166;BME280;36071;48.140;11.516;2024-02-04T06:06:17;96390.0;;;6.9;88.1
50166;BME280;36071;48.140;11.516;2024-02-04T06:11:16;96410.0;;;6.9;89.1
50166;BME280;36071;48.140;11.516;2024-02-04T06:16:20;96410.0;;;6.9;88.9
50166;BME280;36071;48.140;11.516;2024-02-04T06:21:16;96400.0;;;6.9;88.7
50166;BME280;36071;48.140;11.516;2024-02-04T06:26:16;96400.0;;;7.0;89.0
50166;BME280;36071;48.140;11.516;2024-02-04T06:31:20;96400.0;;;7.0;88.2
50166;BME280;36071;48.140;11.516;2024-02-04T06:36:16;96400.0;;;7.0;88.0
50166;BME280;36071;48.140;11.516;2024-02-04T06:41:16;96400.0;;;7.0;87.6
50166;BME280;36071;48.140;11.516;2024-02-04T06:46:25;96420.0;;;7.0;87.7
50166;BME280;36071;48.140;11.516;2024-02-04T06:51:16;96440.0;;;7.0;87.4
50166;BME280;36071;48.140;11.516;2024-02-04T06:56:16;96450.0;;;7.0;86.5
50166;BME280;36071;48.140;11.516;2024-02-04T07:01:16;96460.0;;;7.0;86.2
50166;BME280;36071;48.140;11.516;2024-02-04T07:06:17;96450.0;;;7.0;85.9
50166;BME280;36071;48.140;11.516;2024-02-04T07:11:16;96440.0;;;7.0;84.6
50166;BME280;36071;48.140;11.516;2024-02-04T07:16:16;96420.0;;;7.0;84.6
50166;BME280;36071;48.140;11.516;2024-02-04T07:21:18;96430.0;;;7.1;83.8
50166;BME280;36071;48.140;11.516;2024-02-04T07:26:16;96420.0;;;7.1;82.5
50166;BME280;36071;48.140;11.516;2024-02-04T07:31:17;96430.0;;;7.2;82.3
50166;BME280;36071;48.140;11.516;2024-02-04T07:36:17;96440.0;;;7.2;81.7
50166;BME280;36071;48.140;11.516;2024-02-04T07:41:16;96430.0;;;7.2;81.4
50166;BME280;36071;48.140;11.516;2024-02-04T07:46:16;96450.0;;;7.3;80.8
50166;BME280;36071;48.140;11.516;2024-02-04T07:51:16;96430.0;;;7.2;79.9
50166;BME280;36071;48.140;11.516;2024-02-04T07:56:17;96430.0;;;7.3;80.2
50166;BME280;36071;48.140;11.516;2024-02-04T08:01:17;96410.0;;;7.5;78.5
50166;BME280;36071;48.140;11.516;2024-02-04T08:06:18;96410.0;;;7.6;77.5
50166;BME280;36071;48.140;11.516;2024-02-04T08:11:17;96420.0;;;7.6;77.5
50166;BME280;36071;48.140;11.516;2024-02-04T08:16:16;96420.0;;;7.6;76.8
50166;BME280;36071;48.140;11.516;2024-02-04T08:21:18;96430.0;;;7.8;76.5
50166;BME280;36071;48.140;11.516;2024-02-04T08:26:17;96430.0;;;7.8;76.3
50166;BME280;36071;48.140;11.516;2024-02-04T08:31:16;96420.0;;;8.0;75.8
50166;BME280;36071;48.140;11.516;2024-02-04T08:36:18;96420.0;;;8.0;75.1
50166;BME280;36071;48.140;11.516;2024-02-04T08:41:17;96410.0;;;8.1;74.4
50166;BME280;36071;48.140;11.516;2024-02-04T08:46:16;96400.0;;;8.2;73.6
50166;BME280;36071;48.140;11.516;2024-02-04T08:51:16;96410.0;;;8.4;72.9
50166;BME280;36071;48.140;11.516;2024-02-04T08:56:16;96410.0;;;8.6;72.3
50166;BME280;36071;48.140;11.516;2024-02-04T09:01:19;96410.0;;;8.8;70.0
50166;BME280;36071;48.140;11.516;2024-02-04T09:06:16;96400.0;;;9.0;69.1
50166;BME280;36071;48.140;11.516;2024-02-04T09:11:21;96380.0;;;9.2;67.9
50166;BME280;36071;48.140;11.516;2024-02-04T09:16:16;96390.0;;;9.4;66.8
50166;BME280;36071;48.140;11.516;2024-02-04T09:21:17;96380.0;;;9.5;66.5
50166;BME280;36071;48.140;11.516;2024-02-04T09:26:17;96390.0;;;9.4;66.2
50166;BME280;36071;48.140;11.516;2024-02-04T09:31:16;96380.0;;;9.4;66.6
50166;BME280;36071;48.140;11.516;2024-02-04T09:36:17;96370.0;;;9.2;67.0
50166;BME280;36071;48.140;11.516;2024-02-04T09:41:18;96390.0;;;9.1;67.5
50166;BME280;36071;48.140;11.516;2024-02-04T09:46:16;96390.0;;;9.1;67.9
50166;BME280;36071;48.140;11.516;2024-02-04T09:51:16;96400.0;;;9.1;68.3
50166;BME280;36071;48.140;11.516;2024-02-04T09:56:16;96390.0;;;9.0;68.5
50166;BME280;36071;48.140;11.516;2024-02-04T10:01:16;96400.0;;;9.0;68.5
50166;BME280;36071;48.140;11.516;2024-02-04T10:06:17;96410.0;;;9.1;68.8
50166;BME280;36071;48.140;11.516;2024-02-04T10:11:16;96420.0;;;9.2;68.0
50166;BME280;36071;48.140;11.516;2024-02-04T10:16:17;96430.0;;;9.2;67.6
50166;BME280;36071;48.140;11.516;2024-02-04T10:21:17;96430.0;;;9.2;68.0
50166;BME280;36071;48.140;11.516;2024-02-04T10:26:17;96420.0;;;9.2;67.9
50166;BME280;36071;48.140;11.516;2024-02-04T10:31:16;96410.0;;;9.2;67.8
50166;BME280;36071;48.140;11.516;2024-02-04T10:36:17;96400.0;;;9.8;65.9
50166;BME280;36071;48.140;11.516;2024-02-04T10:41:17;96400.0;;;10.5;62.7
50166;BME280;36071;48.140;11.516;2024-02-04T10:46:17;96410.0;;;10.7;61.9
50166;BME280;36071;48.140;11.516;2024-02-04T10:51:16;96410.0;;;11.0;60.9
50166;BME280;36071;48.140;11.516;2024-02-04T10:56:21;96400.0;;;10.9;60.9
50166;BME280;36071;48.140;11.516;2024-02-04T11:01:16;96410.0;;;10.7;62.0
50166;BME280;36071;48.140;11.516;2024-02-04T11:06:16;96390.0;;;10.6;63.0
50166;BME280;36071;48.140;11.516;2024-02-04T11:11:16;96370.0;;;10.6;62.9
50166;BME280;36071;48.140;11.516;2024-02-04T11:16:19;96350.0;;;10.7;62.6
50166;BME280;36071;48.140;11.516;2024-02-04T11:21:21;96350.0;;;12.4;58.0
50166;BME280;36071;48.140;11.516;2024-02-04T11:26:17;96340.0;;;15.1;49.9
50166;BME280;36071;48.140;11.516;2024-02-04T11:31:17;96320.0;;;16.2;45.7
50166;BME280;36071;48.140;11.516;2024-02-04T11:36:17;96320.0;;;16.2;45.3
50166;BME280;36071;48.140;11.516;2024-02-04T11:41:21;96310.0;;;15.9;45.5
50166;BME280;36071;48.140;11.516;2024-02-04T11:46:18;96300.0;;;14.7;48.2
50166;BME280;36071;48.140;11.516;2024-02-04T11:51:17;96290.0;;;13.8;50.6
50166;BME280;36071;48.140;11.516;2024-02-04T11:56:18;96290.0;;;12.9;52.9
50166;BME280;36071;48.140;11.516;2024-02-04T12:01:17;96300.0;;;12.2;55.3
50166;BME280;36071;48.140;11.516;2024-02-04T12:06:18;96290.0;;;11.8;56.4
50166;BME280;36071;48.140;11.516;2024-02-04T12:11:17;96280.0;;;11.6;57.1
50166;BME280;36071;48.140;11.516;2024-02-04T12:16:20;96280.0;;;11.7;57.5
50166;BME280;36071;48.140;11.516;2024-02-04T12:21:18;96270.0;;;11.9;57.3
50166;BME280;36071;48.140;11.516;2024-02-04T12:26:17;96270.0;;;12.1;56.7
50166;BME280;36071;48.140;11.516;2024-02-04T12:31:18;96250.0;;;11.9;57.0
50166;BME280;36071;48.140;11.516;2024-02-04T12:36:18;96250.0;;;11.6;57.9
50166;BME280;36071;48.140;11.516;2024-02-04T12:41:18;96240.0;;;11.5;58.6
50166;BME280;36071;48.140;11.516;2024-02-04T12:46:18;96240.0;;;11.3;59.4
50166;BME280;36071;48.140;11.516;2024-02-04T12:51:24;96240.0;;;11.3;59.5
50166;BME280;36071;48.140;11.516;2024-02-04T12:56:17;96220.0;;;11.3;60.0
50166;BME280;36071;48.140;11.516;2024-02-04T13:01:17;96200.0;;;11.3;59.5
50166;BME280;36071;48.140;11.516;2024-02-04T13:06:17;96190.0;;;11.5;59.1
50166;BME280;36071;48.140;11.516;2024-02-04T13:11:19;96190.0;;;11.6;58.7
50166;BME280;36071;48.140;11.516;2024-02-04T13:21:17;96220.0;;;11.7;58.5
50166;BME280;36071;48.140;11.516;2024-02-04T13:26:17;96210.0;;;11.8;58.5
50166;BME280;36071;48.140;11.516;2024-02-04T13:36:21;96210.0;;;11.8;59.0
50166;BME280;36071;48.140;11.516;2024-02-04T13:41:17;96220.0;;;11.6;58.7
50166;BME280;36071;48.140;11.516;2024-02-04T13:46:18;96220.0;;;11.6;58.8
50166;BME280;36071;48.140;11.516;2024-02-04T13:51:22;96200.0;;;11.5;58.6
50166;BME280;36071;48.140;11.516;2024-02-04T13:56:21;96210.0;;;11.4;58.8
50166;BME280;36071;48.140;11.516;2024-02-04T14:01:17;96210.0;;;11.4;59.1
50166;BME280;36071;48.140;11.516;2024-02-04T14:06:18;96210.0;;;11.4;59.4
50166;BME280;36071;48.140;11.516;2024-02-04T14:11:18;96200.0;;;11.3;59.5
50166;BME280;36071;48.140;11.516;2024-02-04T14:16:19;96200.0;;;11.2;60.0
50166;BME280;36071;48.140;11.516;2024-02-04T14:21:18;96210.0;;;11.2;60.3
50166;BME280;36071;48.140;11.516;2024-02-04T14:26:19;96200.0;;;11.2;60.7
50166;BME280;36071;48.140;11.516;2024-02-04T14:36:20;96210.0;;;11.2;60.7
50166;BME280;36071;48.140;11.516;2024-02-04T14:41:20;96230.0;;;11.2;60.6
50166;BME280;36071;48.140;11.516;2024-02-04T14:46:18;96210.0;;;11.2;60.8
50166;BME280;36071;48.140;11.516;2024-02-04T14:51:18;96200.0;;;11.1;61.0
50166;BME280;36071;48.140;11.516;2024-02-04T14:56:19;96200.0;;;11.1;61.3
50166;BME280;36071;48.140;11.516;2024-02-04T15:01:18;96220.0;;;11.1;61.6
50166;BME280;36071;48.140;11.516;2024-02-04T15:06:23;96220.0;;;11.2;61.8
50166;BME280;36071;48.140;11.516;2024-02-04T15:11:19;96220.0;;;11.2;61.7
50166;BME280;36071;48.140;11.516;2024-02-04T15:16:19;96210.0;;;11.1;61.9
50166;BME280;36071;48.140;11.516;2024-02-04T15:21:20;96210.0;;;11.2;62.2
50166;BME280;36071;48.140;11.516;2024-02-04T15:26:22;96200.0;;;11.1;62.0
50166;BME280;36071;48.140;11.516;2024-02-04T15:31:19;96220.0;;;11.2;62.2
50166;BME280;36071;48.140;11.516;2024-02-04T15:36:20;96230.0;;;11.2;62.1
50166;BME280;36071;48.140;11.516;2024-02-04T15:41:18;96220.0;;;11.1;62.2
50166;BME280;36071;48.140;11.516;2024-02-04T15:46:19;96220.0;;;11.1;62.3
50166;BME280;36071;48.140;11.516;2024-02-04T15:51:19;96210.0;;;11.1;61.8
50166;BME280;36071;48.140;11.516;2024-02-04T15:56:19;96210.0;;;11.1;61.6
50166;BME280;36071;48.140;11.516;2024-02-04T16:01:19;96230.0;;;11.1;61.3
50166;BME280;36071;48.140;11.516;2024-02-04T16:06:19;96210.0;;;11.1;61.3
50166;BME280;36071;48.140;11.516;2024-02-04T16:11:24;96210.0;;;11.1;61.2
50166;BME280;36071;48.140;11.516;2024-02-04T16:16:19;96220.0;;;11.1;61.3
50166;BME280;36071;48.140;11.516;2024-02-04T16:21:18;96210.0;;;11.1;61.3
50166;BME280;36071;48.140;11.516;2024-02-04T16:26:18;96230.0;;;11.1;61.5
50166;BME280;36071;48.140;11.516;2024-02-04T16:31:19;96230.0;;;11.0;61.7
50166;BME280;36071;48.140;11.516;2024-02-04T16:36:18;96230.0;;;11.0;61.9
50166;BME280;36071;48.140;11.516;2024-02-04T16:41:22;96240.0;;;11.0;62.2
50166;BME280;36071;48.140;11.516;2024-02-04T16:46:19;96240.0;;;10.9;62.3
50166;BME280;36071;48.140;11.516;2024-02-04T16:51:18;96250.0;;;10.9;62.3
50166;BME280;36071;48.140;11.516;2024-02-04T16:56:19;96230.0;;;10.9;62.2
50166;BME280;36071;48.140;11.516;2024-02-04T17:01:18;96230.0;;;10.9;62.0
50166;BME280;36071;48.140;11.516;2024-02-04T17:06:19;96230.0;;;10.8;62.2
50166;BME280;36071;48.140;11.516;2024-02-04T17:11:19;96250.0;;;10.8;62.2
50166;BME280;36071;48.140;11.516;2024-02-04T17:16:22;96230.0;;;10.7;62.0
50166;BME280;36071;48.140;11.516;2024-02-04T17:26:19;96240.0;;;10.6;62.1
50166;BME280;36071;48.140;11.516;2024-02-04T17:31:19;96240.0;;;10.5;62.1
50166;BME280;36071;48.140;11.516;2024-02-04T17:36:18;96240.0;;;10.5;62.3
50166;BME280;36071;48.140;11.516;2024-02-04T17:41:18;96230.0;;;10.5;62.2
50166;BME280;36071;48.140;11.516;2024-02-04T17:46:18;96250.0;;;10.4;62.3
50166;BME280;36071;48.140;11.516;2024-02-04T17:51:19;96240.0;;;10.4;62.3
50166;BME280;36071;48.140;11.516;2024-02-04T17:56:18;96250.0;;;10.3;62.3
50166;BME280;36071;48.140;11.516;2024-02-04T18:01:19;96240.0;;;10.3;62.5
50166;BME280;36071;48.140;11.516;2024-02-04T18:06:18;96250.0;;;10.3;62.4
50166;BME280;36071;48.140;11.516;2024-02-04T18:11:24;96250.0;;;10.2;62.4
50166;BME280;36071;48.140;11.516;2024-02-04T18:16:19;96240.0;;;10.2;62.6
50166;BME280;36071;48.140;11.516;2024-02-04T18:21:19;96220.0;;;10.2;62.7
50166;BME280;36071;48.140;11.516;2024-02-04T18:26:19;96240.0;;;10.1;63.1
50166;BME280;36071;48.140;11.516;2024-02-04T18:31:19;96230.0;;;10.1;63.1
50166;BME280;36071;48.140;11.516;2024-02-04T18:41:19;96220.0;;;10.0;63.3
50166;BME280;36071;48.140;11.516;2024-02-04T18:46:20;96220.0;;;9.9;63.3
50166;BME280;36071;48.140;11.516;2024-02-04T18:51:19;96220.0;;;9.9;63.4
50166;BME280;36071;48.140;11.516;2024-02-04T18:56:21;96220.0;;;9.9;63.6
50166;BME280;36071;48.140;11.516;2024-02-04T19:01:20;96220.0;;;9.9;63.7
50166;BME280;36071;48.140;11.516;2024-02-04T19:11:19;96210.0;;;9.8;64.0
50166;BME280;36071;48.140;11.516;2024-02-04T19:16:20;96200.0;;;9.8;64.2
50166;BME280;36071;48.140;11.516;2024-02-04T19:21:21;96220.0;;;9.8;64.3
50166;BME280;36071;48.140;11.516;2024-02-04T19:26:26;96230.0;;;9.7;64.6
50166;BME280;36071;48.140;11.516;2024-02-04T19:31:20;96220.0;;;9.7;64.9
50166;BME280;36071;48.140;11.516;2024-02-04T19:41:19;96220.0;;;9.7;65.1
50166;BME280;36071;48.140;11.516;2024-02-04T19:46:19;96230.0;;;9.7;65.1
50166;BME280;36071;48.140;11.516;2024-02-04T19:51:23;96230.0;;;9.7;65.3
50166;BME280;36071;48.140;11.516;2024-02-04T20:06:19;96210.0;;;9.6;65.4
50166;BME280;36071;48.140;11.516;2024-02-04T20:11:19;96220.0;;;9.6;65.4
50166;BME280;36071;48.140;11.516;2024-02-04T20:16:20;96210.0;;;9.6;65.5
50166;BME280;36071;48.140;11.516;2024-02-04T20:21:19;96210.0;;;9.6;65.4
50166;BME280;36071;48.140;11.516;2024-02-04T20:26:23;96220.0;;;9.6;65.4
50166;BME280;36071;48.140;11.516;2024-02-04T20:31:21;96220.0;;;9.6;65.3
50166;BME280;36071;48.140;11.516;2024-02-04T20:36:20;96240.0;;;9.6;65.1
50166;BME280;36071;48.140;11.516;2024-02-04T20:41:20;96240.0;;;9.6;64.8
50166;BME280;36071;48.140;11.516;2024-02-04T20:46:21;96230.0;;;9.6;64.5
50166;BME280;36071;48.140;11.516;2024-02-04T20:51:22;96230.0;;;9.6;64.1
50166;BME280;36071;48.140;11.516;2024-02-04T20:56:20;96170.0;;;9.2;63.6
50166;BME280;36071;48.140;11.516;2024-02-04T21:01:21;96220.0;;;9.5;63.4
50166;BME280;36071;48.140;11.516;2024-02-04T21:06:21;96210.0;;;9.5;63.3
50166;BME280;36071;48.140;11.516;2024-02-04T21:11:21;96190.0;;;9.5;63.2
50166;BME280;36071;48.140;11.516;2024-02-04T21:16:21;96200.0;;;9.5;63.0
50166;BME280;36071;48.140;11.516;2024-02-04T21:21:20;96180.0;;;9.5;62.8
50166;BME280;36071;48.140;11.516;2024-02-04T21:26:21;96180.0;;;9.4;62.5
50166;BME280;36071;48.140;11.516;2024-02-04T21:31:21;96180.0;;;9.4;62.3
50166;BME280;36071;48.140;11.516;2024-02-04T21:36:21;96180.0;;;9.4;62.1
50166;BME280;36071;48.140;11.516;2024-02-04T21:41:20;96170.0;;;9.4;62.0
50166;BME280;36071;48.140;11.516;2024-02-04T21:46:21;96160.0;;;9.4;61.8
50166;BME280;36071;48.140;11.516;2024-02-04T21:56:20;96150.0;;;9.4;61.4
50166;BME280;36071;48.140;11.516;2024-02-04T22:01:20;96150.0;;;9.4;61.1
50166;BME280;36071;48.140;11.516;2024-02-04T22:06:21;96150.0;;;9.5;66.1
50166;BME280;36071;48.140;11.516;2024-02-04T22:11:21;96140.0;;;9.6;62.1
50166;BME280;36071;48.140;11.516;2024-02-04T22:16:20;96140.0;;;9.8;61.4
50166;BME280;36071;48.140;11.516;2024-02-04T22:21:21;96140.0;;;9.7;59.5
50166;BME280;36071;48.140;11.516;2024-02-04T22:26:21;96150.0;;;9.6;59.4
50166;BME280;36071;48.140;11.516;2024-02-04T22:31:20;96160.0;;;9.6;59.7
50166;BME280;36071;48.140;11.516;2024-02-04T22:36:20;96150.0;;;9.5;60.0
50166;BME280;36071;48.140;11.516;2024-02-04T22:41:20;96160.0;;;9.5;60.0
50166;BME280;36071;48.140;11.516;2024-02-04T22:46:20;96150.0;;;9.4;60.2
50166;BME280;36071;48.140;11.516;2024-02-04T22:51:21;96140.0;;;9.4;60.3
50166;BME280;36071;48.140;11.516;2024-02-04T22:56:25;96140.0;;;9.3;60.3
50166;BME280;36071;48.140;11.516;2024-02-04T23:01:21;96130.0;;;9.3;60.5
50166;BME280;36071;48.140;11.516;2024-02-04T23:11:22;96120.0;;;9.3;60.6
50166;BME280;36071;48.140;11.516;2024-02-04T23:16:22;96110.0;;;9.3;60.7
50166;BME280;36071;48.140;11.516;2024-02-04T23:21:21;96110.0;;;9.3;60.8
50166;BME280;36071;48.140;11.516;2024-02-04T23:26:22;96100.0;;;9.3;60.8
50166;BME280;36071;48.140;11.516;2024-02-04T23:31:22;96100.0;;;9.3;61.0
50166;BME280;36071;48.140;11.516;2024-02-04T23:41:22;96090.0;;;9.3;60.9
50166;BME280;36071;48.140;11.516;2024-02-04T23:46:21;96090.0;;;9.3;61.0
50166;BME280;36071;48.140;11.516;2024-02-04T23:56:22;96080.0;;;9.3;60.9
